sensor_id;sensor_type;location;lat;lon;timestamp;temperature;humidity
2391;DHT22;22957;50.824;4.360;2023-07-16T00:01:57;19.70;99.90
2391;DHT22;22957;50.824;4.360;2023-07-16T00:04:23;19.40;99.90
2391;DHT22;22957;50.824;4.360;2023-07-16T00:06:48;19.30;99.90
2391;DHT22;22957;50.824;4.360;2023-07-16T00:09:14;19.30;99.90
2391;DHT22;22957;50.824;4.360;2023-07-16T00:11:40;19.30;99.90
2391;DHT22;22957;50.824;4.360;2023-07-16T00:14:05;19.30;99.90
2391;DHT22;22957;50.824;4.360;2023-07-16T00:16:31;19.10;99.90
2391;DHT22;22957;50.824;4.360;2023-07-16T00:18:57;19.10;99.90
2391;DHT22;22957;50.824;4.360;2023-07-16T00:21:23;19.00;99.90
2391;DHT22;22957;50.824;4.360;2023-07-16T00:23:49;19.10;99.90
2391;DHT22;22957;50.824;4.360;2023-07-16T00:26:14;19.10;99.90
2391;DHT22;22957;50.824;4.360;2023-07-16T00:28:40;19.20;99.90
2391;DHT22;22957;50.824;4.360;2023-07-16T00:31:05;19.30;99.90
2391;DHT22;22957;50.824;4.360;2023-07-16T00:33:31;19.10;99.90
2391;DHT22;22957;50.824;4.360;2023-07-16T00:35:56;19.20;99.90
2391;DHT22;22957;50.824;4.360;2023-07-16T00:38:22;18.90;99.90
2391;DHT22;22957;50.824;4.360;2023-07-16T00:40:48;19.00;99.90
2391;DHT22;22957;50.824;4.360;2023-07-16T00:43:14;19.00;99.90
2391;DHT22;22957;50.824;4.360;2023-07-16T00:45:40;18.90;99.90
2391;DHT22;22957;50.824;4.360;2023-07-16T00:48:07;18.70;99.90
2391;DHT22;22957;50.824;4.360;2023-07-16T00:50:34;18.80;99.90
2391;DHT22;22957;50.824;4.360;2023-07-16T00:53:11;18.60;99.90
2391;DHT22;22957;50.824;4.360;2023-07-16T00:55:37;18.40;99.90
2391;DHT22;22957;50.824;4.360;2023-07-16T00:58:07;18.50;99.90
2391;DHT22;22957;50.824;4.360;2023-07-16T01:00:37;18.50;99.90
2391;DHT22;22957;50.824;4.360;2023-07-16T01:03:07;18.70;99.90
2391;DHT22;22957;50.824;4.360;2023-07-16T01:06:04;18.60;99.90
2391;DHT22;22957;50.824;4.360;2023-07-16T01:08:46;18.50;99.90
2391;DHT22;22957;50.824;4.360;2023-07-16T01:11:12;18.60;99.90
2391;DHT22;22957;50.824;4.360;2023-07-16T01:13:38;18.60;99.90
2391;DHT22;22957;50.824;4.360;2023-07-16T01:16:05;18.60;99.90
2391;DHT22;22957;50.824;4.360;2023-07-16T01:18:30;18.60;99.90
2391;DHT22;22957;50.824;4.360;2023-07-16T01:20:56;18.70;99.90
2391;DHT22;22957;50.824;4.360;2023-07-16T01:29:26;18.60;99.90
2391;DHT22;22957;50.824;4.360;2023-07-16T01:31:55;18.70;99.90
2391;DHT22;22957;50.824;4.360;2023-07-16T01:34:22;18.40;99.90
2391;DHT22;22957;50.824;4.360;2023-07-16T01:36:49;18.60;99.90
2391;DHT22;22957;50.824;4.360;2023-07-16T01:39:15;18.50;99.90
2391;DHT22;22957;50.824;4.360;2023-07-16T01:41:41;18.70;99.90
2391;DHT22;22957;50.824;4.360;2023-07-16T01:44:07;18.60;99.90
2391;DHT22;22957;50.824;4.360;2023-07-16T01:46:32;18.50;99.90
2391;DHT22;22957;50.824;4.360;2023-07-16T01:48:58;18.70;99.90
2391;DHT22;22957;50.824;4.360;2023-07-16T01:51:24;18.90;99.90
2391;DHT22;22957;50.824;4.360;2023-07-16T01:53:49;18.80;99.90
2391;DHT22;22957;50.824;4.360;2023-07-16T01:56:16;18.50;99.90
2391;DHT22;22957;50.824;4.360;2023-07-16T01:58:42;18.60;99.90
2391;DHT22;22957;50.824;4.360;2023-07-16T02:01:07;18.60;99.90
2391;DHT22;22957;50.824;4.360;2023-07-16T02:03:33;18.60;99.90
2391;DHT22;22957;50.824;4.360;2023-07-16T02:05:58;18.40;99.90
2391;DHT22;22957;50.824;4.360;2023-07-16T02:08:24;18.30;99.90
2391;DHT22;22957;50.824;4.360;2023-07-16T02:10:50;18.40;99.90
2391;DHT22;22957;50.824;4.360;2023-07-16T02:13:15;18.30;99.90
2391;DHT22;22957;50.824;4.360;2023-07-16T02:15:42;18.10;99.90
2391;DHT22;22957;50.824;4.360;2023-07-16T02:18:08;18.30;99.90
2391;DHT22;22957;50.824;4.360;2023-07-16T02:20:33;18.30;99.90
2391;DHT22;22957;50.824;4.360;2023-07-16T02:22:59;18.00;99.90
2391;DHT22;22957;50.824;4.360;2023-07-16T02:25:24;17.90;99.90
2391;DHT22;22957;50.824;4.360;2023-07-16T02:27:51;18.20;99.90
2391;DHT22;22957;50.824;4.360;2023-07-16T02:30:16;18.20;99.90
2391;DHT22;22957;50.824;4.360;2023-07-16T02:32:42;18.30;99.90
2391;DHT22;22957;50.824;4.360;2023-07-16T02:35:08;18.30;99.90
2391;DHT22;22957;50.824;4.360;2023-07-16T02:37:33;18.10;99.90
2391;DHT22;22957;50.824;4.360;2023-07-16T02:39:59;17.90;99.90
2391;DHT22;22957;50.824;4.360;2023-07-16T02:42:25;18.30;99.90
2391;DHT22;22957;50.824;4.360;2023-07-16T02:44:50;18.30;99.90
2391;DHT22;22957;50.824;4.360;2023-07-16T02:47:16;18.00;99.90
2391;DHT22;22957;50.824;4.360;2023-07-16T02:49:41;18.30;99.90
2391;DHT22;22957;50.824;4.360;2023-07-16T02:52:07;18.20;99.90
2391;DHT22;22957;50.824;4.360;2023-07-16T02:54:34;18.40;99.90
2391;DHT22;22957;50.824;4.360;2023-07-16T02:57:00;18.40;99.90
2391;DHT22;22957;50.824;4.360;2023-07-16T02:59:26;18.30;99.90
2391;DHT22;22957;50.824;4.360;2023-07-16T03:01:51;18.20;99.90
2391;DHT22;22957;50.824;4.360;2023-07-16T03:04:17;18.20;99.90
2391;DHT22;22957;50.824;4.360;2023-07-16T03:06:43;18.00;99.90
2391;DHT22;22957;50.824;4.360;2023-07-16T03:09:08;18.10;99.90
2391;DHT22;22957;50.824;4.360;2023-07-16T03:11:34;18.00;99.90
2391;DHT22;22957;50.824;4.360;2023-07-16T03:13:59;18.30;99.90
2391;DHT22;22957;50.824;4.360;2023-07-16T03:16:25;18.10;99.90
2391;DHT22;22957;50.824;4.360;2023-07-16T03:18:51;18.00;99.90
2391;DHT22;22957;50.824;4.360;2023-07-16T03:21:16;18.00;99.90
2391;DHT22;22957;50.824;4.360;2023-07-16T03:23:42;18.00;99.90
2391;DHT22;22957;50.824;4.360;2023-07-16T03:26:07;17.80;99.90
2391;DHT22;22957;50.824;4.360;2023-07-16T03:28:33;17.70;99.90
2391;DHT22;22957;50.824;4.360;2023-07-16T03:30:59;17.90;99.90
2391;DHT22;22957;50.824;4.360;2023-07-16T03:33:24;17.90;99.90
2391;DHT22;22957;50.824;4.360;2023-07-16T03:35:50;18.00;99.90
2391;DHT22;22957;50.824;4.360;2023-07-16T03:38:16;18.00;99.90
2391;DHT22;22957;50.824;4.360;2023-07-16T03:40:47;18.00;99.90
2391;DHT22;22957;50.824;4.360;2023-07-16T03:43:14;18.30;99.90
2391;DHT22;22957;50.824;4.360;2023-07-16T03:45:40;18.10;99.90
2391;DHT22;22957;50.824;4.360;2023-07-16T03:48:05;18.10;99.90
2391;DHT22;22957;50.824;4.360;2023-07-16T03:50:31;17.90;99.90
2391;DHT22;22957;50.824;4.360;2023-07-16T03:52:56;18.00;99.90
2391;DHT22;22957;50.824;4.360;2023-07-16T03:55:22;17.90;99.90
2391;DHT22;22957;50.824;4.360;2023-07-16T03:57:47;18.00;99.90
2391;DHT22;22957;50.824;4.360;2023-07-16T04:00:13;18.00;99.90
2391;DHT22;22957;50.824;4.360;2023-07-16T04:02:39;17.80;99.90
2391;DHT22;22957;50.824;4.360;2023-07-16T04:05:05;18.10;99.90
2391;DHT22;22957;50.824;4.360;2023-07-16T04:07:31;18.00;99.90
2391;DHT22;22957;50.824;4.360;2023-07-16T04:09:56;18.30;99.90
2391;DHT22;22957;50.824;4.360;2023-07-16T04:12:22;18.20;99.90
2391;DHT22;22957;50.824;4.360;2023-07-16T04:14:47;17.80;99.90
2391;DHT22;22957;50.824;4.360;2023-07-16T04:17:13;18.00;99.90
2391;DHT22;22957;50.824;4.360;2023-07-16T04:19:39;18.10;99.90
2391;DHT22;22957;50.824;4.360;2023-07-16T04:22:04;18.00;99.90
2391;DHT22;22957;50.824;4.360;2023-07-16T04:24:30;17.80;99.90
2391;DHT22;22957;50.824;4.360;2023-07-16T04:26:57;18.00;99.90
2391;DHT22;22957;50.824;4.360;2023-07-16T04:29:23;18.00;99.90
2391;DHT22;22957;50.824;4.360;2023-07-16T04:31:48;18.10;99.90
2391;DHT22;22957;50.824;4.360;2023-07-16T04:34:14;18.50;99.90
2391;DHT22;22957;50.824;4.360;2023-07-16T04:36:39;18.70;99.90
2391;DHT22;22957;50.824;4.360;2023-07-16T04:39:05;19.50;99.90
2391;DHT22;22957;50.824;4.360;2023-07-16T04:41:31;19.70;99.90
2391;DHT22;22957;50.824;4.360;2023-07-16T04:43:56;19.70;99.90
2391;DHT22;22957;50.824;4.360;2023-07-16T04:46:22;19.70;99.90
2391;DHT22;22957;50.824;4.360;2023-07-16T04:48:47;20.00;99.90
2391;DHT22;22957;50.824;4.360;2023-07-16T04:51:13;20.20;99.90
2391;DHT22;22957;50.824;4.360;2023-07-16T04:53:39;20.60;99.90
2391;DHT22;22957;50.824;4.360;2023-07-16T04:56:04;20.00;99.90
2391;DHT22;22957;50.824;4.360;2023-07-16T04:58:35;20.40;99.90
2391;DHT22;22957;50.824;4.360;2023-07-16T05:01:01;20.30;99.90
2391;DHT22;22957;50.824;4.360;2023-07-16T05:03:26;20.40;99.90
2391;DHT22;22957;50.824;4.360;2023-07-16T05:05:52;21.00;99.90
2391;DHT22;22957;50.824;4.360;2023-07-16T05:08:17;21.40;99.90
2391;DHT22;22957;50.824;4.360;2023-07-16T05:10:43;21.60;99.90
2391;DHT22;22957;50.824;4.360;2023-07-16T05:13:08;21.80;99.90
2391;DHT22;22957;50.824;4.360;2023-07-16T05:15:34;21.30;99.90
2391;DHT22;22957;50.824;4.360;2023-07-16T05:17:59;21.40;99.90
2391;DHT22;22957;50.824;4.360;2023-07-16T05:20:25;21.20;99.90
2391;DHT22;22957;50.824;4.360;2023-07-16T05:22:50;21.80;99.90
2391;DHT22;22957;50.824;4.360;2023-07-16T05:25:16;21.80;99.90
2391;DHT22;22957;50.824;4.360;2023-07-16T05:27:42;22.50;99.90
2391;DHT22;22957;50.824;4.360;2023-07-16T05:30:08;22.80;99.90
2391;DHT22;22957;50.824;4.360;2023-07-16T05:32:33;23.10;99.90
2391;DHT22;22957;50.824;4.360;2023-07-16T05:34:59;23.40;99.90
2391;DHT22;22957;50.824;4.360;2023-07-16T05:37:25;23.70;99.90
2391;DHT22;22957;50.824;4.360;2023-07-16T05:39:51;23.50;99.90
2391;DHT22;22957;50.824;4.360;2023-07-16T05:42:16;23.40;99.90
2391;DHT22;22957;50.824;4.360;2023-07-16T05:44:42;24.10;99.90
2391;DHT22;22957;50.824;4.360;2023-07-16T05:47:09;24.10;99.90
2391;DHT22;22957;50.824;4.360;2023-07-16T05:49:35;23.20;99.90
2391;DHT22;22957;50.824;4.360;2023-07-16T05:52:01;24.10;99.90
2391;DHT22;22957;50.824;4.360;2023-07-16T05:54:26;24.40;99.90
2391;DHT22;22957;50.824;4.360;2023-07-16T05:56:52;24.20;99.90
2391;DHT22;22957;50.824;4.360;2023-07-16T05:59:18;24.40;99.90
2391;DHT22;22957;50.824;4.360;2023-07-16T06:01:44;24.30;99.90
2391;DHT22;22957;50.824;4.360;2023-07-16T06:04:09;24.90;99.90
2391;DHT22;22957;50.824;4.360;2023-07-16T06:06:35;24.60;99.90
2391;DHT22;22957;50.824;4.360;2023-07-16T06:09:01;24.50;99.90
2391;DHT22;22957;50.824;4.360;2023-07-16T06:11:26;24.50;99.90
2391;DHT22;22957;50.824;4.360;2023-07-16T06:13:53;24.30;99.90
2391;DHT22;22957;50.824;4.360;2023-07-16T06:16:20;24.90;99.90
2391;DHT22;22957;50.824;4.360;2023-07-16T06:18:45;25.00;99.90
2391;DHT22;22957;50.824;4.360;2023-07-16T06:21:11;25.30;99.90
2391;DHT22;22957;50.824;4.360;2023-07-16T06:23:37;25.90;99.90
2391;DHT22;22957;50.824;4.360;2023-07-16T06:26:03;26.10;99.90
2391;DHT22;22957;50.824;4.360;2023-07-16T06:28:28;25.70;99.90
2391;DHT22;22957;50.824;4.360;2023-07-16T06:30:54;26.30;99.90
2391;DHT22;22957;50.824;4.360;2023-07-16T06:33:20;25.80;99.90
2391;DHT22;22957;50.824;4.360;2023-07-16T06:35:46;25.70;99.90
2391;DHT22;22957;50.824;4.360;2023-07-16T06:38:15;25.80;99.90
2391;DHT22;22957;50.824;4.360;2023-07-16T06:40:50;25.70;99.90
2391;DHT22;22957;50.824;4.360;2023-07-16T06:43:17;25.60;99.90
2391;DHT22;22957;50.824;4.360;2023-07-16T06:45:42;26.00;99.90
2391;DHT22;22957;50.824;4.360;2023-07-16T06:48:08;26.50;99.90
2391;DHT22;22957;50.824;4.360;2023-07-16T06:50:34;26.20;99.90
2391;DHT22;22957;50.824;4.360;2023-07-16T06:53:00;26.50;99.90
2391;DHT22;22957;50.824;4.360;2023-07-16T06:55:25;27.40;99.90
2391;DHT22;22957;50.824;4.360;2023-07-16T06:57:51;27.10;99.90
2391;DHT22;22957;50.824;4.360;2023-07-16T07:00:17;27.60;99.90
2391;DHT22;22957;50.824;4.360;2023-07-16T07:02:42;27.30;99.90
2391;DHT22;22957;50.824;4.360;2023-07-16T07:05:08;27.00;99.90
2391;DHT22;22957;50.824;4.360;2023-07-16T07:07:34;27.70;99.90
2391;DHT22;22957;50.824;4.360;2023-07-16T07:09:59;27.80;99.90
2391;DHT22;22957;50.824;4.360;2023-07-16T07:12:25;27.30;99.90
2391;DHT22;22957;50.824;4.360;2023-07-16T07:14:50;28.20;99.90
2391;DHT22;22957;50.824;4.360;2023-07-16T07:17:16;28.40;99.90
2391;DHT22;22957;50.824;4.360;2023-07-16T07:19:42;27.70;99.90
2391;DHT22;22957;50.824;4.360;2023-07-16T07:22:08;27.80;99.90
2391;DHT22;22957;50.824;4.360;2023-07-16T07:24:34;28.20;99.90
2391;DHT22;22957;50.824;4.360;2023-07-16T07:26:59;27.90;99.50
2391;DHT22;22957;50.824;4.360;2023-07-16T07:29:25;27.90;99.90
2391;DHT22;22957;50.824;4.360;2023-07-16T07:31:53;28.10;99.90
2391;DHT22;22957;50.824;4.360;2023-07-16T07:34:18;27.60;99.90
2391;DHT22;22957;50.824;4.360;2023-07-16T07:36:44;26.90;99.90
2391;DHT22;22957;50.824;4.360;2023-07-16T07:39:10;26.30;99.90
2391;DHT22;22957;50.824;4.360;2023-07-16T07:41:35;26.40;99.90
2391;DHT22;22957;50.824;4.360;2023-07-16T07:44:01;25.80;99.90
2391;DHT22;22957;50.824;4.360;2023-07-16T07:46:26;25.90;99.90
2391;DHT22;22957;50.824;4.360;2023-07-16T07:48:52;25.90;99.90
2391;DHT22;22957;50.824;4.360;2023-07-16T07:51:19;26.50;99.90
2391;DHT22;22957;50.824;4.360;2023-07-16T07:53:45;27.30;99.90
2391;DHT22;22957;50.824;4.360;2023-07-16T07:56:10;26.60;99.90
2391;DHT22;22957;50.824;4.360;2023-07-16T07:58:36;27.00;99.90
2391;DHT22;22957;50.824;4.360;2023-07-16T08:01:06;27.20;99.90
2391;DHT22;22957;50.824;4.360;2023-07-16T08:03:31;27.00;99.90
2391;DHT22;22957;50.824;4.360;2023-07-16T08:05:57;27.60;99.90
2391;DHT22;22957;50.824;4.360;2023-07-16T08:08:22;27.80;99.90
2391;DHT22;22957;50.824;4.360;2023-07-16T08:10:48;27.70;99.90
2391;DHT22;22957;50.824;4.360;2023-07-16T08:13:13;28.30;99.90
2391;DHT22;22957;50.824;4.360;2023-07-16T08:15:39;28.50;99.90
2391;DHT22;22957;50.824;4.360;2023-07-16T08:18:05;29.00;99.80
2391;DHT22;22957;50.824;4.360;2023-07-16T08:20:30;29.10;99.30
2391;DHT22;22957;50.824;4.360;2023-07-16T08:22:56;29.20;98.80
2391;DHT22;22957;50.824;4.360;2023-07-16T08:25:22;29.50;98.20
2391;DHT22;22957;50.824;4.360;2023-07-16T08:27:47;29.80;97.80
2391;DHT22;22957;50.824;4.360;2023-07-16T08:30:13;29.10;98.50
2391;DHT22;22957;50.824;4.360;2023-07-16T08:32:39;29.80;96.90
2391;DHT22;22957;50.824;4.360;2023-07-16T08:35:05;30.40;96.50
2391;DHT22;22957;50.824;4.360;2023-07-16T08:37:31;29.10;97.60
2391;DHT22;22957;50.824;4.360;2023-07-16T08:39:56;30.10;96.90
2391;DHT22;22957;50.824;4.360;2023-07-16T08:42:22;29.70;96.80
2391;DHT22;22957;50.824;4.360;2023-07-16T08:44:49;30.10;96.00
2391;DHT22;22957;50.824;4.360;2023-07-16T08:47:16;29.80;96.40
2391;DHT22;22957;50.824;4.360;2023-07-16T08:49:49;29.80;96.40
2391;DHT22;22957;50.824;4.360;2023-07-16T08:52:17;28.40;96.70
2391;DHT22;22957;50.824;4.360;2023-07-16T08:54:44;28.30;96.90
2391;DHT22;22957;50.824;4.360;2023-07-16T08:57:09;27.50;97.70
2391;DHT22;22957;50.824;4.360;2023-07-16T08:59:35;25.90;99.40
2391;DHT22;22957;50.824;4.360;2023-07-16T09:02:01;25.70;99.90
2391;DHT22;22957;50.824;4.360;2023-07-16T09:04:27;25.50;99.90
2391;DHT22;22957;50.824;4.360;2023-07-16T09:06:55;25.20;99.90
2391;DHT22;22957;50.824;4.360;2023-07-16T09:09:22;25.70;99.90
2391;DHT22;22957;50.824;4.360;2023-07-16T09:11:48;25.70;99.90
2391;DHT22;22957;50.824;4.360;2023-07-16T09:14:18;25.70;99.90
2391;DHT22;22957;50.824;4.360;2023-07-16T09:16:51;25.80;99.90
2391;DHT22;22957;50.824;4.360;2023-07-16T09:19:16;25.70;99.90
2391;DHT22;22957;50.824;4.360;2023-07-16T09:21:49;25.60;99.90
2391;DHT22;22957;50.824;4.360;2023-07-16T09:24:16;25.50;99.90
2391;DHT22;22957;50.824;4.360;2023-07-16T09:26:52;25.50;99.90
2391;DHT22;22957;50.824;4.360;2023-07-16T09:29:18;25.50;99.90
2391;DHT22;22957;50.824;4.360;2023-07-16T09:32:00;25.40;99.90
2391;DHT22;22957;50.824;4.360;2023-07-16T09:34:28;25.40;99.90
2391;DHT22;22957;50.824;4.360;2023-07-16T09:36:54;24.90;99.90
2391;DHT22;22957;50.824;4.360;2023-07-16T09:39:19;25.20;99.90
2391;DHT22;22957;50.824;4.360;2023-07-16T09:41:49;24.40;99.90
2391;DHT22;22957;50.824;4.360;2023-07-16T09:44:16;24.60;99.90
2391;DHT22;22957;50.824;4.360;2023-07-16T09:46:42;24.60;99.90
2391;DHT22;22957;50.824;4.360;2023-07-16T09:49:08;24.50;99.90
2391;DHT22;22957;50.824;4.360;2023-07-16T09:51:36;25.60;99.90
2391;DHT22;22957;50.824;4.360;2023-07-16T09:54:02;25.50;99.90
2391;DHT22;22957;50.824;4.360;2023-07-16T09:56:49;25.20;99.90
2391;DHT22;22957;50.824;4.360;2023-07-16T09:59:18;25.30;99.90
2391;DHT22;22957;50.824;4.360;2023-07-16T10:01:45;24.90;99.90
2391;DHT22;22957;50.824;4.360;2023-07-16T10:04:15;24.80;99.90
2391;DHT22;22957;50.824;4.360;2023-07-16T10:06:53;24.80;99.90
2391;DHT22;22957;50.824;4.360;2023-07-16T10:09:39;25.20;99.90
2391;DHT22;22957;50.824;4.360;2023-07-16T10:12:15;24.80;99.90
2391;DHT22;22957;50.824;4.360;2023-07-16T10:14:44;24.20;99.90
2391;DHT22;22957;50.824;4.360;2023-07-16T10:17:17;24.30;99.90
2391;DHT22;22957;50.824;4.360;2023-07-16T10:19:50;24.30;99.90
2391;DHT22;22957;50.824;4.360;2023-07-16T10:22:17;24.40;99.90
2391;DHT22;22957;50.824;4.360;2023-07-16T10:24:42;24.30;99.90
2391;DHT22;22957;50.824;4.360;2023-07-16T10:27:09;23.90;99.90
2391;DHT22;22957;50.824;4.360;2023-07-16T10:29:35;23.80;99.90
2391;DHT22;22957;50.824;4.360;2023-07-16T10:32:02;23.80;99.90
2391;DHT22;22957;50.824;4.360;2023-07-16T10:34:28;23.50;99.90
2391;DHT22;22957;50.824;4.360;2023-07-16T10:36:53;23.50;99.90
2391;DHT22;22957;50.824;4.360;2023-07-16T10:39:19;23.90;99.90
2391;DHT22;22957;50.824;4.360;2023-07-16T10:41:44;23.60;99.90
2391;DHT22;22957;50.824;4.360;2023-07-16T10:44:15;22.90;99.90
2391;DHT22;22957;50.824;4.360;2023-07-16T10:46:44;23.00;99.90
2391;DHT22;22957;50.824;4.360;2023-07-16T10:49:09;23.20;99.90
2391;DHT22;22957;50.824;4.360;2023-07-16T10:51:35;23.40;99.90
2391;DHT22;22957;50.824;4.360;2023-07-16T10:54:01;23.20;99.90
2391;DHT22;22957;50.824;4.360;2023-07-16T10:56:34;23.90;99.90
2391;DHT22;22957;50.824;4.360;2023-07-16T10:59:01;24.40;99.90
2391;DHT22;22957;50.824;4.360;2023-07-16T11:01:29;24.30;99.90
2391;DHT22;22957;50.824;4.360;2023-07-16T11:04:00;23.60;99.90
2391;DHT22;22957;50.824;4.360;2023-07-16T11:06:26;23.60;99.90
2391;DHT22;22957;50.824;4.360;2023-07-16T11:08:52;23.70;99.90
2391;DHT22;22957;50.824;4.360;2023-07-16T11:11:28;23.90;99.90
2391;DHT22;22957;50.824;4.360;2023-07-16T11:13:54;23.60;99.90
2391;DHT22;22957;50.824;4.360;2023-07-16T11:16:19;23.00;99.90
2391;DHT22;22957;50.824;4.360;2023-07-16T11:18:45;23.10;99.90
2391;DHT22;22957;50.824;4.360;2023-07-16T11:21:10;22.70;99.90
2391;DHT22;22957;50.824;4.360;2023-07-16T11:23:36;22.70;99.90
2391;DHT22;22957;50.824;4.360;2023-07-16T11:26:05;22.20;99.90
2391;DHT22;22957;50.824;4.360;2023-07-16T11:28:40;21.90;99.90
2391;DHT22;22957;50.824;4.360;2023-07-16T11:31:11;21.80;99.90
2391;DHT22;22957;50.824;4.360;2023-07-16T11:33:36;22.10;99.90
2391;DHT22;22957;50.824;4.360;2023-07-16T11:36:02;22.40;99.90
2391;DHT22;22957;50.824;4.360;2023-07-16T11:38:28;22.50;99.90
2391;DHT22;22957;50.824;4.360;2023-07-16T11:40:53;23.00;99.90
2391;DHT22;22957;50.824;4.360;2023-07-16T11:43:19;23.20;99.90
2391;DHT22;22957;50.824;4.360;2023-07-16T11:45:47;23.10;99.90
2391;DHT22;22957;50.824;4.360;2023-07-16T11:48:14;23.50;99.90
2391;DHT22;22957;50.824;4.360;2023-07-16T11:50:39;23.80;99.90
2391;DHT22;22957;50.824;4.360;2023-07-16T11:53:05;24.40;99.90
2391;DHT22;22957;50.824;4.360;2023-07-16T11:55:30;25.30;99.90
2391;DHT22;22957;50.824;4.360;2023-07-16T11:57:56;25.80;99.90
2391;DHT22;22957;50.824;4.360;2023-07-16T12:00:22;26.30;99.90
2391;DHT22;22957;50.824;4.360;2023-07-16T12:02:48;26.70;99.90
2391;DHT22;22957;50.824;4.360;2023-07-16T12:05:21;26.80;99.90
2391;DHT22;22957;50.824;4.360;2023-07-16T12:07:47;27.40;99.90
2391;DHT22;22957;50.824;4.360;2023-07-16T12:10:12;27.30;99.90
2391;DHT22;22957;50.824;4.360;2023-07-16T12:12:38;27.40;99.90
2391;DHT22;22957;50.824;4.360;2023-07-16T12:15:05;26.90;99.90
2391;DHT22;22957;50.824;4.360;2023-07-16T12:17:30;27.20;99.90
2391;DHT22;22957;50.824;4.360;2023-07-16T12:19:56;27.80;99.90
2391;DHT22;22957;50.824;4.360;2023-07-16T12:22:22;27.10;99.90
2391;DHT22;22957;50.824;4.360;2023-07-16T12:24:48;27.10;99.90
2391;DHT22;22957;50.824;4.360;2023-07-16T12:27:14;27.50;99.90
2391;DHT22;22957;50.824;4.360;2023-07-16T12:29:41;27.40;99.90
2391;DHT22;22957;50.824;4.360;2023-07-16T12:32:07;27.30;99.90
2391;DHT22;22957;50.824;4.360;2023-07-16T12:34:33;27.00;99.90
2391;DHT22;22957;50.824;4.360;2023-07-16T12:36:59;27.30;99.90
2391;DHT22;22957;50.824;4.360;2023-07-16T12:39:24;26.70;99.90
2391;DHT22;22957;50.824;4.360;2023-07-16T12:41:50;26.40;99.90
2391;DHT22;22957;50.824;4.360;2023-07-16T12:44:15;26.50;99.90
2391;DHT22;22957;50.824;4.360;2023-07-16T12:46:41;26.70;99.90
2391;DHT22;22957;50.824;4.360;2023-07-16T12:49:06;26.90;99.90
2391;DHT22;22957;50.824;4.360;2023-07-16T12:51:32;26.70;99.90
2391;DHT22;22957;50.824;4.360;2023-07-16T12:53:57;26.70;99.90
2391;DHT22;22957;50.824;4.360;2023-07-16T12:56:23;26.50;99.90
2391;DHT22;22957;50.824;4.360;2023-07-16T12:58:49;26.70;99.90
2391;DHT22;22957;50.824;4.360;2023-07-16T13:01:14;27.10;99.90
2391;DHT22;22957;50.824;4.360;2023-07-16T13:03:40;26.90;99.90
2391;DHT22;22957;50.824;4.360;2023-07-16T13:06:05;26.80;99.90
2391;DHT22;22957;50.824;4.360;2023-07-16T13:08:31;27.30;99.90
2391;DHT22;22957;50.824;4.360;2023-07-16T13:10:57;27.60;99.90
2391;DHT22;22957;50.824;4.360;2023-07-16T13:13:22;27.70;99.90
2391;DHT22;22957;50.824;4.360;2023-07-16T13:15:48;27.30;99.90
2391;DHT22;22957;50.824;4.360;2023-07-16T13:18:14;27.60;99.90
2391;DHT22;22957;50.824;4.360;2023-07-16T13:20:39;27.20;99.90
2391;DHT22;22957;50.824;4.360;2023-07-16T13:23:05;27.10;99.90
2391;DHT22;22957;50.824;4.360;2023-07-16T13:25:31;26.70;99.90
2391;DHT22;22957;50.824;4.360;2023-07-16T13:27:56;26.20;99.90
2391;DHT22;22957;50.824;4.360;2023-07-16T13:30:22;25.80;99.90
2391;DHT22;22957;50.824;4.360;2023-07-16T13:32:48;25.70;99.90
2391;DHT22;22957;50.824;4.360;2023-07-16T13:35:17;25.90;99.90
2391;DHT22;22957;50.824;4.360;2023-07-16T13:37:43;25.50;99.90
2391;DHT22;22957;50.824;4.360;2023-07-16T13:40:09;25.00;99.90
2391;DHT22;22957;50.824;4.360;2023-07-16T13:42:34;24.50;99.90
2391;DHT22;22957;50.824;4.360;2023-07-16T13:45:00;24.80;99.90
2391;DHT22;22957;50.824;4.360;2023-07-16T13:47:25;24.80;99.90
2391;DHT22;22957;50.824;4.360;2023-07-16T13:49:51;25.20;99.90
2391;DHT22;22957;50.824;4.360;2023-07-16T13:52:17;25.90;99.90
2391;DHT22;22957;50.824;4.360;2023-07-16T13:54:42;26.00;99.90
2391;DHT22;22957;50.824;4.360;2023-07-16T13:57:08;25.90;99.90
2391;DHT22;22957;50.824;4.360;2023-07-16T13:59:34;25.80;99.90
2391;DHT22;22957;50.824;4.360;2023-07-16T14:02:01;25.60;99.90
2391;DHT22;22957;50.824;4.360;2023-07-16T14:04:28;26.40;99.90
2391;DHT22;22957;50.824;4.360;2023-07-16T14:06:53;27.10;99.90
2391;DHT22;22957;50.824;4.360;2023-07-16T14:09:19;27.10;99.90
2391;DHT22;22957;50.824;4.360;2023-07-16T14:11:45;27.00;99.90
2391;DHT22;22957;50.824;4.360;2023-07-16T14:14:13;26.40;99.90
2391;DHT22;22957;50.824;4.360;2023-07-16T14:16:39;26.60;99.90
2391;DHT22;22957;50.824;4.360;2023-07-16T14:19:04;27.00;99.90
2391;DHT22;22957;50.824;4.360;2023-07-16T14:21:30;27.00;99.90
2391;DHT22;22957;50.824;4.360;2023-07-16T14:23:56;27.40;99.90
2391;DHT22;22957;50.824;4.360;2023-07-16T14:26:21;27.30;99.90
2391;DHT22;22957;50.824;4.360;2023-07-16T14:28:47;26.80;99.90
2391;DHT22;22957;50.824;4.360;2023-07-16T14:31:12;27.20;99.90
2391;DHT22;22957;50.824;4.360;2023-07-16T14:33:38;27.10;99.90
2391;DHT22;22957;50.824;4.360;2023-07-16T14:36:04;27.00;99.90
2391;DHT22;22957;50.824;4.360;2023-07-16T14:38:30;27.70;99.80
2391;DHT22;22957;50.824;4.360;2023-07-16T14:40:56;27.90;99.00
2391;DHT22;22957;50.824;4.360;2023-07-16T14:43:21;28.10;98.70
2391;DHT22;22957;50.824;4.360;2023-07-16T14:45:47;27.30;99.00
2391;DHT22;22957;50.824;4.360;2023-07-16T14:48:13;27.60;98.60
2391;DHT22;22957;50.824;4.360;2023-07-16T14:50:39;27.90;98.00
2391;DHT22;22957;50.824;4.360;2023-07-16T14:53:05;28.50;96.90
2391;DHT22;22957;50.824;4.360;2023-07-16T14:55:30;28.80;95.90
2391;DHT22;22957;50.824;4.360;2023-07-16T14:57:56;28.70;95.80
2391;DHT22;22957;50.824;4.360;2023-07-16T15:00:22;28.70;95.80
2391;DHT22;22957;50.824;4.360;2023-07-16T15:02:48;28.90;95.20
2391;DHT22;22957;50.824;4.360;2023-07-16T15:05:14;28.90;94.30
2391;DHT22;22957;50.824;4.360;2023-07-16T15:07:39;28.20;94.80
2391;DHT22;22957;50.824;4.360;2023-07-16T15:10:05;28.10;95.20
2391;DHT22;22957;50.824;4.360;2023-07-16T15:12:31;27.90;94.30
2391;DHT22;22957;50.824;4.360;2023-07-16T15:14:57;27.80;94.70
2391;DHT22;22957;50.824;4.360;2023-07-16T15:17:23;27.40;94.70
2391;DHT22;22957;50.824;4.360;2023-07-16T15:19:49;27.60;94.80
2391;DHT22;22957;50.824;4.360;2023-07-16T15:22:15;26.70;95.50
2391;DHT22;22957;50.824;4.360;2023-07-16T15:24:43;26.90;95.60
2391;DHT22;22957;50.824;4.360;2023-07-16T15:27:09;27.00;96.10
2391;DHT22;22957;50.824;4.360;2023-07-16T15:29:34;26.40;96.40
2391;DHT22;22957;50.824;4.360;2023-07-16T15:32:00;26.90;96.30
2391;DHT22;22957;50.824;4.360;2023-07-16T15:34:25;26.60;97.00
2391;DHT22;22957;50.824;4.360;2023-07-16T15:36:51;27.20;96.50
2391;DHT22;22957;50.824;4.360;2023-07-16T15:39:16;27.80;96.10
2391;DHT22;22957;50.824;4.360;2023-07-16T15:41:43;27.80;96.00
2391;DHT22;22957;50.824;4.360;2023-07-16T15:44:09;27.70;96.20
2391;DHT22;22957;50.824;4.360;2023-07-16T15:46:34;27.30;96.70